createdAt,value
2022-11-19T00:00:11.670Z,996.42
2022-11-19T00:01:11.688Z,996.44
2022-11-19T00:02:11.703Z,996.47
2022-11-19T00:03:11.651Z,996.44
2022-11-19T00:04:11.641Z,996.51
2022-11-19T00:05:11.639Z,996.48
2022-11-19T00:06:11.632Z,996.55
2022-11-19T00:07:11.685Z,996.52
2022-11-19T00:08:11.596Z,996.49
2022-11-19T00:09:14.362Z,996.52
2022-11-19T00:10:11.578Z,996.57
2022-11-19T00:11:11.590Z,996.50
2022-11-19T00:12:11.553Z,996.51
2022-11-19T00:13:11.550Z,996.48
2022-11-19T00:14:11.566Z,996.46
2022-11-19T00:15:11.535Z,996.49
2022-11-19T00:16:11.574Z,996.52
2022-11-19T00:17:11.522Z,996.38
2022-11-19T00:18:11.492Z,996.46
2022-11-19T00:19:11.491Z,996.41
2022-11-19T00:20:11.474Z,996.37
2022-11-19T00:21:11.500Z,996.38
2022-11-19T00:22:11.458Z,996.40
2022-11-19T00:23:11.450Z,996.41
2022-11-19T00:24:11.432Z,996.45
2022-11-19T00:25:11.436Z,996.42
2022-11-19T00:26:11.421Z,996.45
2022-11-19T00:27:11.446Z,996.43
2022-11-19T00:28:11.404Z,996.46
2022-11-19T00:29:14.306Z,996.45
2022-11-19T00:30:32.609Z,996.34
2022-11-19T00:31:11.382Z,996.44
2022-11-19T00:32:11.479Z,996.42
2022-11-19T00:33:11.418Z,996.43
2022-11-19T00:34:11.344Z,996.44
2022-11-19T00:35:11.323Z,996.46
2022-11-19T00:36:11.312Z,996.45
2022-11-19T00:37:11.346Z,996.50
2022-11-19T00:38:11.293Z,996.47
2022-11-19T00:39:11.293Z,996.49
2022-11-19T00:40:11.296Z,996.52
2022-11-19T00:41:11.278Z,996.55
2022-11-19T00:42:11.273Z,996.53
2022-11-19T00:43:11.255Z,996.42
2022-11-19T00:44:11.260Z,996.50
2022-11-19T00:45:11.231Z,996.54
2022-11-19T00:46:11.226Z,996.58
2022-11-19T00:47:11.236Z,996.59
2022-11-19T00:48:11.198Z,996.58
2022-11-19T00:49:11.203Z,996.57
2022-11-19T00:50:11.195Z,996.60
2022-11-19T00:51:11.168Z,996.64
2022-11-19T00:52:11.190Z,996.62
2022-11-19T00:53:11.157Z,996.62
2022-11-19T00:54:11.131Z,996.66
2022-11-19T00:55:11.151Z,996.66
2022-11-19T00:56:11.128Z,996.65
2022-11-19T00:57:11.149Z,996.65
2022-11-19T00:58:11.116Z,996.69
2022-11-19T00:59:11.094Z,996.69
2022-11-19T01:00:11.088Z,996.74
2022-11-19T01:01:11.156Z,996.71
2022-11-19T01:02:11.084Z,996.70
2022-11-19T01:03:11.060Z,996.69
2022-11-19T01:04:11.034Z,996.74
2022-11-19T01:05:11.033Z,996.72
2022-11-19T01:06:13.215Z,996.74
2022-11-19T01:07:11.056Z,996.76
2022-11-19T01:08:11.029Z,996.76
2022-11-19T01:09:11.089Z,996.82
2022-11-19T01:10:10.984Z,996.83
2022-11-19T01:11:10.992Z,996.82
2022-11-19T01:12:10.983Z,996.83
2022-11-19T01:13:10.959Z,996.88
2022-11-19T01:14:10.985Z,996.86
2022-11-19T01:15:10.939Z,996.88
2022-11-19T01:16:10.924Z,996.89
2022-11-19T01:17:10.944Z,996.92
2022-11-19T01:18:10.906Z,996.95
2022-11-19T01:19:18.031Z,996.93
2022-11-19T01:20:10.917Z,996.95
2022-11-19T01:28:37.754Z,997.07
2022-11-19T01:29:38.728Z,997.09
2022-11-19T01:30:38.705Z,997.11
2022-11-19T01:31:38.764Z,997.11
2022-11-19T01:32:38.705Z,997.09
2022-11-19T01:33:38.672Z,997.09
2022-11-19T01:34:38.676Z,997.09
2022-11-19T01:35:38.658Z,997.11
2022-11-19T01:36:38.648Z,997.09
2022-11-19T01:37:38.669Z,997.08
2022-11-19T01:38:38.626Z,997.08
2022-11-19T01:39:38.621Z,997.05
2022-11-19T01:40:38.603Z,997.15
2022-11-19T01:41:38.606Z,997.07
2022-11-19T01:42:38.612Z,997.11
2022-11-19T01:43:38.603Z,997.10
2022-11-19T01:44:38.558Z,997.12
2022-11-19T01:45:38.564Z,997.13
2022-11-19T01:46:38.582Z,997.11
2022-11-19T01:47:38.554Z,997.15
2022-11-19T01:48:38.537Z,997.21
2022-11-19T01:49:38.513Z,997.20
2022-11-19T01:50:38.508Z,997.22
2022-11-19T01:51:38.492Z,997.23
2022-11-19T01:52:38.509Z,997.26
2022-11-19T01:53:38.493Z,997.24
2022-11-19T01:54:38.464Z,997.25
2022-11-19T01:55:38.463Z,997.26
2022-11-19T01:56:38.438Z,997.25
2022-11-19T01:57:38.466Z,997.26
2022-11-19T01:58:38.424Z,997.25
2022-11-19T01:59:38.415Z,997.32
2022-11-19T02:00:38.411Z,997.25
2022-11-19T02:01:38.454Z,997.28
2022-11-19T02:02:38.376Z,997.25
2022-11-19T02:03:38.396Z,997.28
2022-11-19T02:04:38.362Z,997.27
2022-11-19T02:05:38.352Z,997.27
2022-11-19T02:06:38.337Z,997.27
2022-11-19T02:07:38.350Z,997.25
2022-11-19T02:08:38.343Z,997.27
2022-11-19T02:09:38.309Z,997.28
2022-11-19T02:10:38.298Z,997.26
2022-11-19T02:11:38.297Z,997.28
2022-11-19T02:12:38.275Z,997.31
2022-11-19T02:13:38.295Z,997.30
2022-11-19T02:14:38.255Z,997.35
2022-11-19T02:15:38.248Z,997.38
2022-11-19T02:16:38.255Z,997.37
2022-11-19T02:17:38.225Z,997.36
2022-11-19T02:18:38.241Z,997.39
2022-11-19T02:19:38.206Z,997.38
2022-11-19T02:20:38.216Z,997.37
2022-11-19T02:21:38.190Z,997.39
2022-11-19T02:22:38.168Z,997.39
2022-11-19T02:23:41.909Z,997.39
2022-11-19T02:24:38.157Z,997.43
2022-11-19T02:25:38.144Z,997.40
2022-11-19T02:26:38.137Z,997.40
2022-11-19T02:27:38.128Z,997.42
2022-11-19T02:28:38.133Z,997.42
2022-11-19T02:29:38.099Z,997.42
2022-11-19T02:30:38.084Z,997.40
2022-11-19T02:31:38.088Z,997.39
2022-11-19T02:32:38.077Z,997.41
2022-11-19T02:33:38.102Z,997.37
2022-11-19T02:34:38.047Z,997.41
2022-11-19T02:35:38.078Z,997.38
2022-11-19T02:36:38.024Z,997.37
2022-11-19T02:37:38.027Z,997.41
2022-11-19T02:38:38.049Z,997.38
2022-11-19T02:39:37.998Z,997.39
2022-11-19T02:40:37.978Z,997.38
2022-11-19T02:41:37.986Z,997.45
2022-11-19T02:42:37.974Z,997.49
2022-11-19T02:43:37.994Z,997.49
2022-11-19T02:44:37.942Z,997.44
2022-11-19T02:45:37.947Z,997.45
2022-11-19T02:46:37.927Z,997.45
2022-11-19T02:47:37.911Z,997.47
2022-11-19T02:48:37.900Z,997.51
2022-11-19T02:49:37.930Z,997.47
2022-11-19T02:50:37.883Z,997.48
2022-11-19T02:51:37.877Z,997.50
2022-11-19T02:52:37.865Z,997.50
2022-11-19T02:53:37.867Z,997.49
2022-11-19T02:54:37.864Z,997.48
2022-11-19T02:55:37.844Z,997.50
2022-11-19T02:56:37.901Z,997.46
2022-11-19T02:57:37.819Z,997.48
2022-11-19T02:58:37.801Z,997.50
2022-11-19T02:59:37.839Z,997.48
2022-11-19T03:00:37.777Z,997.50
2022-11-19T03:01:37.857Z,997.51
2022-11-19T03:02:37.757Z,997.53
2022-11-19T03:03:37.765Z,997.51
2022-11-19T03:04:37.775Z,997.59
2022-11-19T03:05:37.745Z,997.57
2022-11-19T03:06:37.721Z,997.64
2022-11-19T03:07:37.765Z,997.64
2022-11-19T03:08:37.706Z,997.57
2022-11-19T03:09:37.729Z,997.67
2022-11-19T03:10:37.681Z,997.62
2022-11-19T03:11:37.678Z,997.63
2022-11-19T03:12:37.670Z,997.61
2022-11-19T03:13:37.666Z,997.63
2022-11-19T03:14:37.663Z,997.63
2022-11-19T03:15:37.637Z,997.60
2022-11-19T03:16:37.613Z,997.61
2022-11-19T03:17:37.607Z,997.63
2022-11-19T03:18:37.600Z,997.64
2022-11-19T03:19:37.602Z,997.67
2022-11-19T03:20:37.581Z,997.65
2022-11-19T03:21:37.571Z,997.69
2022-11-19T03:22:37.552Z,997.65
2022-11-19T03:23:37.581Z,997.68
2022-11-19T03:24:37.558Z,997.66
2022-11-19T03:25:37.527Z,997.65
2022-11-19T03:26:37.512Z,997.68
2022-11-19T03:27:37.521Z,997.66
2022-11-19T03:28:37.494Z,997.68
2022-11-19T03:29:37.503Z,997.66
2022-11-19T03:30:37.477Z,997.69
2022-11-19T03:31:37.541Z,997.66
2022-11-19T03:32:37.455Z,997.69
2022-11-19T03:33:37.469Z,997.71
2022-11-19T03:34:37.462Z,997.66
2022-11-19T03:35:37.417Z,997.71
2022-11-19T03:36:37.414Z,997.68
2022-11-19T03:37:37.411Z,997.74
2022-11-19T03:38:37.387Z,997.75
2022-11-19T03:39:37.387Z,997.72
2022-11-19T03:40:37.400Z,997.78
2022-11-19T03:41:37.364Z,997.77
2022-11-19T03:42:37.349Z,997.76
2022-11-19T03:43:37.352Z,997.77
2022-11-19T03:48:23.011Z,997.82
2022-11-19T03:49:29.148Z,997.80
2022-11-19T03:50:22.652Z,997.80
2022-11-19T03:51:22.644Z,997.83
2022-11-19T03:52:22.636Z,997.83
2022-11-19T03:53:22.611Z,997.87
2022-11-19T03:54:22.609Z,997.80
2022-11-19T03:55:22.596Z,997.83
2022-11-19T03:56:22.573Z,997.83
2022-11-19T03:57:22.561Z,997.75
2022-11-19T03:58:22.555Z,997.88
2022-11-19T03:59:28.181Z,997.83
2022-11-19T04:00:22.566Z,997.84
2022-11-19T04:01:22.594Z,997.85
2022-11-19T04:02:22.528Z,997.87
2022-11-19T04:03:22.516Z,997.84
2022-11-19T04:04:22.501Z,997.89
2022-11-19T04:05:22.498Z,997.91
2022-11-19T04:06:22.479Z,997.93
2022-11-19T04:07:22.557Z,997.91
2022-11-19T04:08:22.464Z,997.92
2022-11-19T04:09:28.950Z,997.93
2022-11-19T04:10:22.458Z,997.96
2022-11-19T04:12:24.254Z,998.01
2022-11-19T04:13:25.239Z,998.00
2022-11-19T04:14:25.227Z,998.05
2022-11-19T04:15:25.231Z,998.05
2022-11-19T04:16:25.208Z,998.04
2022-11-19T04:17:25.191Z,998.06
2022-11-19T04:18:25.193Z,998.05
2022-11-19T04:19:25.190Z,998.04
2022-11-19T04:20:25.213Z,998.15
2022-11-19T04:21:25.145Z,998.09
2022-11-19T04:22:25.154Z,998.12
2022-11-19T04:23:25.127Z,998.14
2022-11-19T04:24:25.127Z,998.08
2022-11-19T04:25:25.143Z,998.09
2022-11-19T04:26:25.101Z,998.11
2022-11-19T04:27:25.102Z,998.16
2022-11-19T04:28:25.087Z,998.19
2022-11-19T04:29:25.068Z,998.16
2022-11-19T04:30:25.071Z,998.16
2022-11-19T04:31:25.083Z,998.21
2022-11-19T04:32:25.037Z,998.25
2022-11-19T04:33:25.026Z,998.21
2022-11-19T04:34:25.030Z,998.26
2022-11-19T04:35:25.014Z,998.25
2022-11-19T04:36:25.021Z,998.26
2022-11-19T04:37:24.992Z,998.26
2022-11-19T04:38:24.982Z,998.27
2022-11-19T04:39:24.974Z,998.27
2022-11-19T04:40:24.966Z,998.25
2022-11-19T04:41:24.981Z,998.28
2022-11-19T04:42:24.949Z,998.22
2022-11-19T04:43:24.929Z,998.25
2022-11-19T04:44:24.924Z,998.27
2022-11-19T04:45:24.909Z,998.22
2022-11-19T04:46:24.948Z,998.25
2022-11-19T04:47:24.887Z,998.29
2022-11-19T04:48:24.917Z,998.29
2022-11-19T04:49:24.872Z,998.29
2022-11-19T04:50:24.868Z,998.30
2022-11-19T04:51:24.869Z,998.33
2022-11-19T04:52:24.861Z,998.32
2022-11-19T04:53:24.826Z,998.31
2022-11-19T04:54:24.822Z,998.34
2022-11-19T04:55:24.804Z,998.37
2022-11-19T04:56:24.825Z,998.35
2022-11-19T04:57:24.787Z,998.39
2022-11-19T04:58:24.785Z,998.36
2022-11-19T04:59:24.775Z,998.40
2022-11-19T05:00:24.773Z,998.37
2022-11-19T05:01:24.800Z,998.36
2022-11-19T05:02:24.750Z,998.35
2022-11-19T05:03:24.744Z,998.37
2022-11-19T05:04:24.720Z,998.45
2022-11-19T05:05:24.744Z,998.35
2022-11-19T05:06:24.727Z,998.33
2022-11-19T05:07:24.740Z,998.35
2022-11-19T05:08:24.685Z,998.34
2022-11-19T05:09:24.668Z,998.31
2022-11-19T05:10:24.661Z,998.34
2022-11-19T05:11:24.696Z,998.42
2022-11-19T05:12:24.655Z,998.36
2022-11-19T05:13:24.625Z,998.37
2022-11-19T05:14:28.908Z,998.40
2022-11-19T05:15:24.610Z,998.37
2022-11-19T05:16:24.627Z,998.40
2022-11-19T05:17:24.581Z,998.44
2022-11-19T05:18:24.582Z,998.36
2022-11-19T05:19:24.567Z,998.45
2022-11-19T05:20:24.578Z,998.49
2022-11-19T05:21:24.580Z,998.51
2022-11-19T05:22:24.539Z,998.48
2022-11-19T05:23:24.523Z,998.51
2022-11-19T05:24:24.545Z,998.59
2022-11-19T05:25:24.506Z,998.54
2022-11-19T05:26:24.522Z,998.55
2022-11-19T05:27:24.508Z,998.58
2022-11-19T05:28:37.517Z,998.61
2022-11-19T05:29:24.469Z,998.58
2022-11-19T05:30:24.469Z,998.62
2022-11-19T05:31:24.475Z,998.64
2022-11-19T05:32:24.439Z,998.64
2022-11-19T05:33:24.424Z,998.67
2022-11-19T05:34:24.451Z,998.69
2022-11-19T05:35:24.403Z,998.72
2022-11-19T05:36:24.420Z,998.76
2022-11-19T05:37:24.385Z,998.76
2022-11-19T05:38:24.378Z,998.75
2022-11-19T05:39:24.822Z,998.73
2022-11-19T05:40:24.358Z,998.73
2022-11-19T05:41:24.368Z,998.75
2022-11-19T05:42:24.361Z,998.78
2022-11-19T05:43:24.330Z,998.81
2022-11-19T05:44:24.321Z,998.80
2022-11-19T05:45:24.317Z,998.75
2022-11-19T05:46:24.332Z,998.85
2022-11-19T05:47:24.302Z,998.82
2022-11-19T05:48:24.297Z,998.80
2022-11-19T05:49:24.277Z,998.80
2022-11-19T05:50:24.277Z,998.86
2022-11-19T05:51:24.256Z,998.81
2022-11-19T05:52:24.275Z,998.88
2022-11-19T05:53:24.249Z,998.83
2022-11-19T05:54:24.277Z,998.92
2022-11-19T05:55:24.211Z,998.82
2022-11-19T05:56:24.208Z,998.87
2022-11-19T05:57:24.219Z,998.83
2022-11-19T05:58:24.184Z,998.80
2022-11-19T05:59:24.185Z,998.80
2022-11-19T06:00:24.168Z,998.86
2022-11-19T06:01:24.146Z,998.81
2022-11-19T06:02:24.286Z,998.83
2022-11-19T06:03:24.131Z,998.84
2022-11-19T06:04:24.139Z,998.79
2022-11-19T06:05:24.130Z,998.85
2022-11-19T06:06:32.071Z,998.88
2022-11-19T06:15:49.422Z,998.93
2022-11-19T06:16:50.419Z,999.05
2022-11-19T06:17:50.386Z,998.99
2022-11-19T06:18:50.380Z,999.00
2022-11-19T06:19:50.367Z,998.97
2022-11-19T06:20:50.318Z,999.03
2022-11-19T06:21:50.376Z,999.03
2022-11-19T06:22:50.314Z,999.04
2022-11-19T06:23:50.273Z,999.04
2022-11-19T06:24:50.269Z,999.04
2022-11-19T06:25:50.313Z,999.13
2022-11-19T06:26:50.318Z,999.12
2022-11-19T06:27:50.245Z,999.14
2022-11-19T06:28:50.236Z,999.17
2022-11-19T06:29:55.943Z,999.14
2022-11-19T06:30:50.231Z,999.15
2022-11-19T06:31:50.225Z,999.12
2022-11-19T06:32:50.204Z,999.17
2022-11-19T06:33:50.178Z,999.15
2022-11-19T06:34:50.165Z,999.22
2022-11-19T06:35:50.156Z,999.22
2022-11-19T06:36:50.858Z,999.26
2022-11-19T06:37:50.158Z,999.25
2022-11-19T06:38:50.160Z,999.25
2022-11-19T06:39:56.619Z,999.29
2022-11-19T06:40:50.109Z,999.28
2022-11-19T06:41:50.123Z,999.32
2022-11-19T06:42:51.232Z,999.28
2022-11-19T06:43:50.077Z,999.32
2022-11-19T06:44:50.081Z,999.33
2022-11-19T06:45:50.060Z,999.35
2022-11-19T06:46:50.082Z,999.34
2022-11-19T06:47:50.037Z,999.37
2022-11-19T06:48:50.032Z,999.38
2022-11-19T06:49:50.019Z,999.36
2022-11-19T06:50:50.022Z,999.40
2022-11-19T06:51:50.040Z,999.42
2022-11-19T06:52:49.995Z,999.45
2022-11-19T06:53:49.979Z,999.43
2022-11-19T06:54:49.974Z,999.43
2022-11-19T06:55:49.963Z,999.43
2022-11-19T06:56:49.952Z,999.47
2022-11-19T06:57:49.974Z,999.46
2022-11-19T06:58:49.944Z,999.47
2022-11-19T06:59:49.932Z,999.43
2022-11-19T07:00:49.973Z,999.43
2022-11-19T07:01:49.935Z,999.38
2022-11-19T07:02:49.915Z,999.44
2022-11-19T07:03:49.884Z,999.42
2022-11-19T07:04:49.870Z,999.43
2022-11-19T07:05:49.866Z,999.48
2022-11-19T07:06:49.856Z,999.46
2022-11-19T07:07:49.869Z,999.43
2022-11-19T07:08:49.839Z,999.42
2022-11-19T07:09:49.822Z,999.47
2022-11-19T07:10:49.819Z,999.40
2022-11-19T07:11:49.802Z,999.42
2022-11-19T07:12:49.815Z,999.47
2022-11-19T07:13:49.786Z,999.43
2022-11-19T07:14:49.785Z,999.42
2022-11-19T07:15:49.762Z,999.43
2022-11-19T07:16:49.761Z,999.46
2022-11-19T07:17:49.766Z,999.46
2022-11-19T07:18:49.735Z,999.45
2022-11-19T07:19:49.724Z,999.57
2022-11-19T07:20:49.732Z,999.48
2022-11-19T07:21:49.721Z,999.49
2022-11-19T07:22:50.589Z,999.51
2022-11-19T07:23:49.696Z,999.54
2022-11-19T07:24:49.678Z,999.58
2022-11-19T07:25:49.668Z,999.57
2022-11-19T07:26:49.657Z,999.63
2022-11-19T07:27:49.664Z,999.61
2022-11-19T07:28:49.642Z,999.63
2022-11-19T07:29:49.626Z,999.64
2022-11-19T07:30:49.622Z,999.68
2022-11-19T07:31:49.610Z,999.66
2022-11-19T07:32:49.626Z,999.63
2022-11-19T07:33:49.587Z,999.64
2022-11-19T07:34:49.577Z,999.69
2022-11-19T07:35:49.575Z,999.71
2022-11-19T07:36:49.554Z,999.71
2022-11-19T07:37:49.570Z,999.75
2022-11-19T07:38:49.539Z,999.79
2022-11-19T07:39:49.527Z,999.77
2022-11-19T07:40:49.516Z,999.80
2022-11-19T07:41:49.498Z,999.82
2022-11-19T07:42:49.522Z,999.80
2022-11-19T07:43:49.480Z,999.84
2022-11-19T07:44:53.593Z,999.85
2022-11-19T07:45:49.467Z,999.85
2022-11-19T07:46:49.459Z,999.86
2022-11-19T07:47:49.474Z,999.87
2022-11-19T07:48:49.443Z,999.91
2022-11-19T07:49:49.426Z,999.92
2022-11-19T07:50:55.163Z,999.95
2022-11-19T07:51:49.446Z,999.96
2022-11-19T07:52:49.414Z,999.94
2022-11-19T07:53:49.382Z,999.96
2022-11-19T07:54:49.385Z,999.90
2022-11-19T07:55:49.367Z,999.94
2022-11-19T07:56:49.366Z,999.94
2022-11-19T07:57:49.365Z,999.94
2022-11-19T07:58:49.338Z,999.93
2022-11-19T07:59:49.348Z,999.94
2022-11-19T08:00:49.318Z,999.98
2022-11-19T08:01:49.365Z,1000.02
2022-11-19T08:02:49.325Z,1000.01
2022-11-19T08:03:54.668Z,1000.07
2022-11-19T08:04:49.288Z,1000.08
2022-11-19T08:05:49.274Z,1000.09
2022-11-19T08:06:49.271Z,1000.09
2022-11-19T08:07:49.265Z,1000.07
2022-11-19T08:08:49.247Z,1000.08
2022-11-19T08:09:49.257Z,1000.10
2022-11-19T08:10:49.219Z,1000.15
2022-11-19T08:11:49.215Z,1000.15
2022-11-19T08:12:49.231Z,1000.14
2022-11-19T08:13:49.206Z,1000.15
2022-11-19T08:14:49.194Z,1000.21
2022-11-19T08:15:49.176Z,1000.15
2022-11-19T08:16:49.170Z,1000.16
2022-11-19T08:17:49.148Z,1000.14
2022-11-19T08:18:49.161Z,1000.15
2022-11-19T08:19:49.125Z,1000.15
2022-11-19T08:20:49.125Z,1000.16
2022-11-19T08:21:49.116Z,1000.15
2022-11-19T08:22:49.113Z,1000.22
2022-11-19T08:23:49.138Z,1000.16
2022-11-19T08:24:49.093Z,1000.20
2022-11-19T08:25:49.070Z,1000.22
2022-11-19T08:26:49.087Z,1000.21
2022-11-19T08:27:49.057Z,1000.20
2022-11-19T08:28:49.063Z,1000.24
2022-11-19T08:29:49.058Z,1000.24
2022-11-19T08:30:55.542Z,1000.22
2022-11-19T08:31:55.535Z,1000.25
2022-11-19T08:32:55.530Z,1000.24
2022-11-19T08:36:04.804Z,1000.22
2022-11-19T08:37:11.782Z,1000.24
2022-11-19T08:38:05.787Z,1000.22
2022-11-19T08:39:05.776Z,1000.20
2022-11-19T08:40:05.727Z,1000.22
2022-11-19T08:41:05.747Z,1000.24
2022-11-19T08:42:05.709Z,1000.22
2022-11-19T08:43:05.701Z,1000.26
2022-11-19T08:44:05.716Z,1000.25
2022-11-19T08:45:05.690Z,1000.27
2022-11-19T08:46:05.669Z,1000.27
2022-11-19T08:47:05.658Z,1000.33
2022-11-19T08:48:05.660Z,1000.29
2022-11-19T08:49:05.674Z,1000.31
2022-11-19T08:50:05.638Z,1000.33
2022-11-19T08:51:05.618Z,1000.33
2022-11-19T08:52:05.643Z,1000.33
2022-11-19T08:53:05.622Z,1000.34
2022-11-19T08:54:05.630Z,1000.35
2022-11-19T08:55:05.594Z,1000.35
2022-11-19T08:56:05.573Z,1000.33
2022-11-19T08:57:05.572Z,1000.33
2022-11-19T08:58:05.554Z,1000.36
2022-11-19T08:59:05.576Z,1000.34
2022-11-19T09:00:06.445Z,1000.41
2022-11-19T09:01:05.552Z,1000.41
2022-11-19T09:02:12.021Z,1000.42
2022-11-19T09:03:13.062Z,1000.43
2022-11-19T09:04:05.556Z,1000.40
2022-11-19T09:05:05.491Z,1000.42
2022-11-19T09:06:05.468Z,1000.49
2022-11-19T09:07:05.486Z,1000.54
2022-11-19T09:08:05.460Z,1000.49
2022-11-19T09:09:05.464Z,1000.52
2022-11-19T09:10:05.442Z,1000.53
2022-11-19T09:11:05.457Z,1000.59
2022-11-19T09:12:05.413Z,1000.61
2022-11-19T09:13:05.404Z,1000.60
2022-11-19T09:14:05.413Z,1000.64
2022-11-19T09:15:05.385Z,1000.63
2022-11-19T09:16:05.373Z,1000.66
2022-11-19T09:17:05.369Z,1000.63
2022-11-19T09:18:05.350Z,1000.69
2022-11-19T09:19:05.369Z,1000.67
2022-11-19T09:20:05.330Z,1000.70
2022-11-19T09:21:05.330Z,1000.71
2022-11-19T09:22:05.310Z,1000.71
2022-11-19T09:23:05.299Z,1000.75
2022-11-19T09:24:05.336Z,1000.73
2022-11-19T09:25:05.283Z,1000.77
2022-11-19T09:26:05.292Z,1000.76
2022-11-19T09:27:05.284Z,1000.71
2022-11-19T09:28:05.322Z,1000.76
2022-11-19T09:29:05.276Z,1000.78
2022-11-19T09:30:05.308Z,1000.73
2022-11-19T09:31:05.217Z,1000.75
2022-11-19T09:32:05.211Z,1000.77
2022-11-19T09:33:05.236Z,1000.80
2022-11-19T09:34:05.211Z,1000.79
2022-11-19T09:35:05.197Z,1000.82
2022-11-19T09:36:05.162Z,1000.84
2022-11-19T09:37:05.160Z,1000.81
2022-11-19T09:38:05.157Z,1000.78
2022-11-19T09:39:05.174Z,1000.80
2022-11-19T09:40:05.125Z,1000.78
2022-11-19T09:41:05.123Z,1000.81
2022-11-19T09:42:05.110Z,1000.87
2022-11-19T09:43:05.129Z,1000.86
2022-11-19T09:44:05.120Z,1000.87
2022-11-19T09:45:05.111Z,1000.86
2022-11-19T09:46:05.124Z,1000.88
2022-11-19T09:47:05.067Z,1000.86
2022-11-19T09:48:05.057Z,1000.85
2022-11-19T09:49:05.048Z,1000.81
2022-11-19T09:50:05.048Z,1000.83
2022-11-19T09:51:05.046Z,1000.86
2022-11-19T09:52:07.629Z,1000.84
2022-11-19T09:53:05.009Z,1000.88
2022-11-19T09:54:05.021Z,1000.83
2022-11-19T09:55:05.004Z,1000.87
2022-11-19T09:56:04.969Z,1000.86
2022-11-19T09:57:04.963Z,1000.88
2022-11-19T09:58:04.994Z,1000.87
2022-11-19T09:59:04.952Z,1000.85
2022-11-19T10:00:04.956Z,1000.88
2022-11-19T10:01:04.933Z,1000.86
2022-11-19T10:02:04.914Z,1000.85
2022-11-19T10:03:04.926Z,1000.89
2022-11-19T10:04:04.880Z,1000.91
2022-11-19T10:05:04.946Z,1000.88
2022-11-19T10:06:04.877Z,1000.91
2022-11-19T10:07:04.974Z,1000.91
2022-11-19T10:08:04.855Z,1000.93
2022-11-19T10:09:04.846Z,1000.94
2022-11-19T10:10:09.267Z,1000.95
2022-11-19T10:11:04.857Z,1000.93
2022-11-19T10:12:04.879Z,1000.95
2022-11-19T10:13:04.868Z,1000.88
2022-11-19T10:14:04.799Z,1000.92
2022-11-19T10:15:04.812Z,1000.91
2022-11-19T10:16:04.784Z,1000.86
2022-11-19T10:17:04.769Z,1000.89
2022-11-19T10:18:04.763Z,1000.87
2022-11-19T10:19:05.811Z,1000.86
2022-11-19T10:20:04.741Z,1000.90
2022-11-19T10:22:23.873Z,1000.92
2022-11-19T10:23:24.585Z,1000.91
2022-11-19T10:24:24.412Z,1000.94
2022-11-19T10:25:24.445Z,1000.91
2022-11-19T10:26:24.409Z,1000.89
2022-11-19T10:27:25.225Z,1000.88
2022-11-19T10:28:24.415Z,1000.92
2022-11-19T10:29:24.360Z,1000.88
2022-11-19T10:30:24.377Z,1000.85
2022-11-19T10:31:24.357Z,1000.85
2022-11-19T10:32:24.340Z,1000.86
2022-11-19T10:33:24.317Z,1000.93
2022-11-19T10:34:24.306Z,1000.96
2022-11-19T10:35:24.327Z,1000.96
2022-11-19T10:36:24.278Z,1000.95
2022-11-19T10:37:24.277Z,1000.96
2022-11-19T10:38:24.262Z,1000.99
2022-11-19T10:39:24.266Z,1000.97
2022-11-19T10:40:24.312Z,1000.99
2022-11-19T10:41:24.301Z,1000.96
2022-11-19T10:42:24.295Z,1001.01
2022-11-19T10:43:24.255Z,1001.04
2022-11-19T10:44:24.244Z,1001.01
2022-11-19T10:45:24.244Z,1000.99
2022-11-19T10:46:24.216Z,1000.97
2022-11-19T10:47:24.249Z,1000.99
2022-11-19T10:48:24.162Z,1000.97
2022-11-19T10:49:24.162Z,1000.98
2022-11-19T10:50:24.210Z,1000.93
2022-11-19T10:51:24.136Z,1000.94
2022-11-19T10:52:24.126Z,1000.96
2022-11-19T10:53:24.127Z,1000.99
2022-11-19T10:54:24.100Z,1000.96
2022-11-19T10:55:24.118Z,1000.94
2022-11-19T10:56:24.120Z,1000.92
2022-11-19T10:57:24.119Z,1000.92
2022-11-19T10:58:24.330Z,1000.97
2022-11-19T11:01:40.881Z,1000.88
2022-11-19T11:02:41.863Z,1000.88
2022-11-19T11:03:41.833Z,1000.89
2022-11-19T11:04:41.810Z,1000.89
2022-11-19T11:05:41.846Z,1000.92
2022-11-19T11:06:41.795Z,1000.89
2022-11-19T11:07:45.631Z,1000.90
2022-11-19T11:08:41.782Z,1000.86
2022-11-19T11:09:41.802Z,1000.84
2022-11-19T11:10:42.367Z,1000.85
2022-11-19T11:11:41.777Z,1000.78
2022-11-19T11:12:41.878Z,1000.76
2022-11-19T11:13:42.250Z,1000.77
2022-11-19T11:14:41.814Z,1000.77
2022-11-19T11:15:41.853Z,1000.74
2022-11-19T11:16:41.706Z,1000.75
2022-11-19T11:17:42.715Z,1000.73
2022-11-19T11:18:41.690Z,1000.78
2022-11-19T11:19:41.683Z,1000.73
2022-11-19T11:20:42.782Z,1000.77
2022-11-19T11:21:41.685Z,1000.78
2022-11-19T11:22:41.633Z,1000.82
2022-11-19T11:23:41.627Z,1000.80
2022-11-19T11:24:41.642Z,1000.81
2022-11-19T11:25:41.646Z,1000.81
2022-11-19T11:26:41.586Z,1000.81
2022-11-19T11:27:41.588Z,1000.83
2022-11-19T11:28:41.603Z,1000.79
2022-11-19T11:29:41.608Z,1000.81
2022-11-19T11:30:41.585Z,1000.80
2022-11-19T11:31:41.544Z,1000.80
2022-11-19T11:32:41.571Z,1000.78
2022-11-19T11:33:41.533Z,1000.79
2022-11-19T11:34:43.730Z,1000.81
2022-11-19T11:35:41.499Z,1000.80
2022-11-19T11:36:41.514Z,1000.78
2022-11-19T11:37:41.499Z,1000.78
2022-11-19T11:38:41.468Z,1000.80
2022-11-19T11:39:41.475Z,1000.79
2022-11-19T11:40:41.471Z,1000.80
2022-11-19T11:42:04.816Z,1000.78
2022-11-19T11:42:41.514Z,1000.79
2022-11-19T11:43:41.603Z,1000.76
2022-11-19T11:44:41.761Z,1000.81
2022-11-19T11:45:41.457Z,1000.78
2022-11-19T11:46:41.629Z,1000.77
2022-11-19T11:47:41.393Z,1000.78
2022-11-19T11:48:41.392Z,1000.77
2022-11-19T11:49:41.359Z,1000.77
2022-11-19T11:50:41.366Z,1000.75
2022-11-19T11:51:41.364Z,1000.74
2022-11-19T11:52:43.250Z,1000.74
2022-11-19T11:53:42.301Z,1000.75
2022-11-19T11:54:41.318Z,1000.75
2022-11-19T11:55:41.311Z,1000.79
2022-11-19T11:56:41.554Z,1000.78
2022-11-19T11:57:41.395Z,1000.77
2022-11-19T11:58:41.350Z,1000.83
2022-11-19T11:59:41.575Z,1000.78
2022-11-19T12:00:41.279Z,1000.79
2022-11-19T12:01:41.314Z,1000.77
2022-11-19T12:02:41.316Z,1000.80
2022-11-19T12:03:54.344Z,1000.79
2022-11-19T12:04:41.281Z,1000.79
2022-11-19T12:05:41.375Z,1000.76
2022-11-19T12:06:41.338Z,1000.76
2022-11-19T12:07:41.343Z,1000.79
2022-11-19T12:08:41.428Z,1000.81
2022-11-19T12:09:41.216Z,1000.79
2022-11-19T12:10:41.175Z,1000.82
2022-11-19T12:11:41.186Z,1000.81
2022-11-19T12:12:41.164Z,1000.78
2022-11-19T12:13:41.136Z,1000.82
2022-11-19T12:14:41.169Z,1000.82
2022-11-19T12:15:41.161Z,1000.76
2022-11-19T12:16:41.113Z,1000.77
2022-11-19T12:17:41.091Z,1000.78
2022-11-19T12:18:41.064Z,1000.78
2022-11-19T12:19:41.062Z,1000.80
2022-11-19T12:20:41.057Z,1000.76
2022-11-19T12:21:41.113Z,1000.77
2022-11-19T12:22:41.022Z,1000.71
2022-11-19T12:23:41.024Z,1000.72
2022-11-19T12:24:41.013Z,1000.72
2022-11-19T12:25:42.238Z,1000.68
2022-11-19T12:26:41.034Z,1000.67
2022-11-19T12:27:41.018Z,1000.64
2022-11-19T12:28:40.981Z,1000.63
2022-11-19T12:29:41.002Z,1000.68
2022-11-19T12:30:40.968Z,1000.67
2022-11-19T12:31:40.974Z,1000.62
2022-11-19T12:32:40.922Z,1000.63
2022-11-19T12:33:40.926Z,1000.67
2022-11-19T12:34:40.916Z,1000.64
2022-11-19T12:35:40.938Z,1000.67
2022-11-19T12:36:40.995Z,1000.69
2022-11-19T12:37:40.919Z,1000.63
2022-11-19T12:38:40.889Z,1000.66
2022-11-19T12:39:40.856Z,1000.64
2022-11-19T12:40:42.008Z,1000.63
2022-11-19T12:41:40.874Z,1000.63
2022-11-19T12:42:40.847Z,1000.66
2022-11-19T12:43:40.898Z,1000.61
2022-11-19T12:44:40.825Z,1000.60
2022-11-19T12:45:40.842Z,1000.61